Time;durP1;ratioP1;P1;durP2;ratioP2;P2;SDS_P1;SDS_P2;PMS_P1;PMS_P2;Temp;Humidity;BMP_temperature;BMP_pressure;BME280_temperature;BME280_humidity;BME280_pressure;Samples;Min_cycle;Max_cycle;Signal;HPM_P1;HPM_P2
2022/01/23 00:00:44;;;;;;;48.63;24.60;;;6.30;99.90;;;;;;6129618;23;20013;-88
2022/01/23 00:03:17;;;;;;;43.33;23.37;;;6.30;99.90;;;;;;6155637;23;20009;-87
2022/01/23 00:05:45;;;;;;;45.23;24.47;;;6.30;99.90;;;;;;6154323;23;20001;-88
2022/01/23 00:08:13;;;;;;;42.03;22.53;;;6.30;99.90;;;;;;6153556;23;20006;-88
2022/01/23 00:10:40;;;;;;;40.13;21.43;;;6.30;99.90;;;;;;6129484;23;20445;-88
2022/01/23 00:13:16;;;;;;;39.60;21.80;;;6.30;99.90;;;;;;6129498;23;20092;-88
2022/01/23 00:18:28;;;;;;;43.27;21.67;;;6.30;99.90;;;;;;6128845;23;20013;-88
2022/01/23 00:20:55;;;;;;;44.50;22.50;;;6.30;99.90;;;;;;6129248;23;20325;-88
2022/01/23 00:31:37;;;;;;;47.37;23.90;;;6.30;99.90;;;;;;6155407;23;20010;-88
2022/01/23 00:34:04;;;;;;;43.88;23.02;;;6.30;99.90;;;;;;6154043;23;20010;-88
2022/01/23 00:36:31;;;;;;;44.33;23.50;;;6.30;99.90;;;;;;6129281;23;20071;-88
2022/01/23 00:38:57;;;;;;;43.80;23.43;;;6.30;99.90;;;;;;6153146;23;20009;-88
2022/01/23 00:41:24;;;;;;;49.63;24.10;;;6.30;99.90;;;;;;6129385;23;20344;-87
2022/01/23 00:43:52;;;;;;;44.33;23.60;;;6.40;99.90;;;;;;6129108;23;20013;-88
2022/01/23 00:49:30;;;;;;;43.27;23.33;;;6.40;99.90;;;;;;6153178;23;20016;-88
2022/01/23 00:51:34;;;;;;;41.27;23.83;;;6.40;99.90;;;;;;6123440;23;20068;-88
2022/01/23 00:54:03;;;;;;;49.20;25.70;;;6.40;99.90;;;;;;6129029;23;20010;-88
2022/01/23 00:56:29;;;;;;;44.88;24.98;;;6.50;99.90;;;;;;6153752;23;20444;-88
2022/01/23 00:58:55;;;;;;;47.47;24.40;;;6.40;99.90;;;;;;6128520;23;20013;-88
2022/01/23 01:01:21;;;;;;;49.30;25.57;;;6.40;99.90;;;;;;6128906;23;20039;-88
2022/01/23 01:03:48;;;;;;;47.23;25.57;;;6.40;99.90;;;;;;6153218;23;20005;-88
2022/01/23 01:06:16;;;;;;;48.20;25.77;;;6.40;99.90;;;;;;6129080;23;20096;-88
2022/01/23 01:08:46;;;;;;;43.10;24.93;;;6.30;99.90;;;;;;6153396;23;20040;-88
2022/01/23 01:11:54;;;;;;;45.67;24.80;;;6.40;99.90;;;;;;6153441;23;20009;-89
2022/01/23 01:14:19;;;;;;;48.70;26.13;;;6.30;99.90;;;;;;6128788;23;20064;-88
2022/01/23 01:17:01;;;;;;;44.03;25.73;;;6.20;99.90;;;;;;6104934;23;20318;-88
2022/01/23 01:30:38;;;;;;;56.27;27.53;;;6.40;99.90;;;;;;6128595;23;20326;-88
2022/01/23 01:35:46;;;;;;;53.60;26.90;;;6.30;99.90;;;;;;6153298;23;20084;-88
2022/01/23 01:38:12;;;;;;;51.60;27.10;;;6.30;99.90;;;;;;6128120;23;20511;-88
2022/01/23 01:40:38;;;;;;;50.67;27.13;;;6.30;99.90;;;;;;6153548;23;20017;-88
2022/01/23 01:43:04;;;;;;;46.40;25.83;;;6.30;99.90;;;;;;6128638;23;20440;-88
2022/01/23 01:45:33;;;;;;;48.90;25.70;;;6.30;99.90;;;;;;6128637;23;20040;-88
2022/01/23 01:48:06;;;;;;;51.40;26.37;;;6.30;99.90;;;;;;6128229;23;20009;-89
2022/01/23 01:50:34;;;;;;;49.77;26.60;;;6.20;99.90;;;;;;6128431;23;20088;-89
2022/01/23 01:53:05;;;;;;;45.30;25.07;;;6.30;99.90;;;;;;6128550;23;20395;-88
2022/01/23 01:55:39;;;;;;;43.63;24.23;;;6.30;99.90;;;;;;6128568;23;20032;-88
2022/01/23 01:58:12;;;;;;;49.37;26.53;;;6.30;99.90;;;;;;6128062;23;20433;-88
2022/01/23 02:00:59;;;;;;;49.70;26.87;;;6.30;99.90;;;;;;6128511;23;20006;-88
2022/01/23 02:08:21;;;;;;;48.40;26.17;;;6.30;99.90;;;;;;6128558;23;20032;-88
2022/01/23 02:09:45;;;;;;;43.40;23.97;;;6.30;99.90;;;;;;6127630;23;20005;-88
2022/01/23 02:17:58;;;;;;;49.70;26.57;;;6.30;99.90;;;;;;6152653;23;20017;-87
2022/01/23 02:55:55;;;;;;;44.23;25.80;;;6.30;99.90;;;;;;6128246;23;20036;-88
2022/01/23 02:58:23;;;;;;;49.00;26.73;;;6.30;99.90;;;;;;6127556;23;20018;-88
2022/01/23 03:03:59;;;;;;;49.27;26.43;;;6.30;99.90;;;;;;6152861;23;20010;-88
2022/01/23 03:28:21;;;;;;;49.27;28.07;;;6.30;99.90;;;;;;6155428;23;20006;-88
2022/01/23 03:31:09;;;;;;;;;;;6.20;99.90;;;;;;6155064;23;20501;-88
2022/01/23 03:33:36;;;;;;;52.00;28.27;;;6.20;99.90;;;;;;6154948;23;19904;-88
2022/01/23 03:36:03;;;;;;;51.00;27.40;;;6.20;99.90;;;;;;6154379;23;20429;-88
2022/01/23 03:38:29;;;;;;;58.30;28.53;;;6.30;99.90;;;;;;6153924;23;20009;-88
2022/01/23 03:40:55;;;;;;;51.97;28.17;;;6.30;99.90;;;;;;6154168;23;19997;-88
2022/01/23 03:43:28;;;;;;;54.80;29.07;;;6.20;99.90;;;;;;6105257;23;20060;-88
2022/01/23 03:51:15;;;;;;;55.70;28.97;;;6.30;99.90;;;;;;6154051;23;20009;-88
2022/01/23 03:53:45;;;;;;;49.67;27.73;;;6.30;99.90;;;;;;6106126;23;20093;-88
2022/01/23 03:56:11;;;;;;;51.70;27.10;;;6.30;99.90;;;;;;6105429;23;20005;-88
2022/01/23 03:58:40;;;;;;;49.67;26.08;;;6.30;99.90;;;;;;6129245;23;20083;-88
2022/01/23 04:01:12;;;;;;;46.43;25.90;;;6.20;99.90;;;;;;6129904;23;20006;-88
2022/01/23 04:03:39;;;;;;;47.07;26.27;;;6.20;99.90;;;;;;6154103;23;20437;-88
2022/01/23 04:06:07;;;;;;;48.73;26.90;;;6.20;99.90;;;;;;6105588;23;20337;-88
2022/01/23 04:08:35;;;;;;;50.80;26.80;;;6.20;99.90;;;;;;6105142;23;20010;-87
2022/01/23 04:11:02;;;;;;;52.97;27.10;;;6.20;99.90;;;;;;6129849;23;20009;-88
2022/01/23 04:13:42;;;;;;;52.70;27.87;;;6.20;99.90;;;;;;6104914;23;20060;-88
2022/01/23 04:46:12;;;;;;;47.60;26.43;;;6.30;99.90;;;;;;6153828;23;20009;-88
2022/01/23 04:49:04;;;;;;;50.07;26.20;;;6.30;99.90;;;;;;6128605;23;20017;-88
2022/01/23 04:59:46;;;;;;;54.87;28.40;;;6.20;99.90;;;;;;6153060;23;20067;-88
2022/01/23 05:04:54;;;;;;;53.00;28.70;;;6.20;99.90;;;;;;6165393;23;20009;-88
2022/01/23 05:07:39;;;;;;;56.43;29.10;;;6.20;99.90;;;;;;6108437;23;20013;-87
2022/01/23 05:10:24;;;;;;;66.07;32.80;;;6.20;99.90;;;;;;6154803;23;20033;-88
2022/01/23 05:13:02;;;;;;;55.70;29.13;;;6.30;99.90;;;;;;6106809;23;20321;-88
2022/01/23 05:15:28;;;;;;;51.37;27.43;;;6.30;99.90;;;;;;6104804;23;20016;-88
2022/01/23 05:17:54;;;;;;;49.47;27.87;;;6.30;99.90;;;;;;6154647;23;20088;-88
2022/01/23 05:20:22;;;;;;;51.60;27.17;;;6.20;99.90;;;;;;6104262;23;20013;-88
2022/01/23 05:22:51;;;;;;;49.60;27.63;;;6.30;99.90;;;;;;6104333;23;20052;-88
2022/01/23 05:25:27;;;;;;;49.67;26.48;;;6.20;99.90;;;;;;6153403;23;20088;-88
2022/01/23 05:27:54;;;;;;;50.17;27.50;;;6.20;99.90;;;;;;6128468;23;20373;-88
2022/01/23 05:30:20;;;;;;;50.87;27.37;;;6.20;99.90;;;;;;6130052;23;20009;-87
2022/01/23 05:32:46;;;;;;;46.37;25.40;;;6.30;99.90;;;;;;6154837;23;20429;-87
2022/01/23 05:35:17;;;;;;;48.23;26.43;;;6.20;99.90;;;;;;6128888;23;20035;-87
2022/01/23 05:37:44;;;;;;;50.60;26.83;;;6.10;99.90;;;;;;6152856;23;20028;-88
2022/01/23 05:40:16;;;;;;;50.23;26.90;;;6.20;99.90;;;;;;6128673;23;20092;-87
2022/01/23 05:42:44;;;;;;;53.33;28.90;;;6.10;99.90;;;;;;6152860;23;20013;-87
2022/01/23 05:45:11;;;;;;;53.10;28.03;;;6.20;99.90;;;;;;6153272;23;20060;-88
2022/01/23 05:48:05;;;;;;;52.10;27.80;;;6.20;99.90;;;;;;6128852;23;20441;-87
2022/01/23 05:50:51;;;;;;;51.30;27.60;;;6.20;99.90;;;;;;6123029;23;20014;-87
2022/01/23 05:53:29;;;;;;;49.03;26.60;;;6.20;99.90;;;;;;6165053;23;20017;-88
2022/01/23 05:56:07;;;;;;;47.80;27.07;;;6.20;99.90;;;;;;6153897;23;20017;-88
2022/01/23 05:58:57;;;;;;;54.35;29.23;;;6.20;99.90;;;;;;6139488;23;20036;-88
2022/01/23 06:01:40;;;;;;;50.07;27.37;;;6.20;99.90;;;;;;6150452;23;20020;-88
2022/01/23 06:04:11;;;;;;;50.77;27.67;;;6.20;99.90;;;;;;6153258;23;20001;-88
2022/01/23 06:06:46;;;;;;;48.50;27.17;;;6.30;99.90;;;;;;6152480;23;20059;-88
2022/01/23 06:09:12;;;;;;;49.50;27.73;;;6.30;99.90;;;;;;6152991;23;20009;-89
2022/01/23 06:11:38;;;;;;;50.57;27.20;;;6.30;99.90;;;;;;6154085;23;20507;-89
2022/01/23 06:14:06;;;;;;;51.93;27.47;;;6.30;99.90;;;;;;6156076;23;20101;-88
2022/01/23 06:16:32;;;;;;;47.30;26.60;;;6.30;99.90;;;;;;6128811;23;20060;-89
2022/01/23 06:19:16;;;;;;;50.63;26.67;;;6.30;99.90;;;;;;6152763;23;20062;-88
2022/01/23 06:22:01;;;;;;;53.63;28.30;;;6.30;99.90;;;;;;6153417;23;20024;-88
2022/01/23 06:24:47;;;;;;;54.43;28.63;;;6.30;99.90;;;;;;6153487;23;20457;-89
2022/01/23 06:27:30;;;;;;;55.17;28.77;;;6.30;99.90;;;;;;6129672;23;20465;-88
2022/01/23 06:29:55;;;;;;;52.17;28.42;;;6.30;99.90;;;;;;6153453;23;20013;-88
2022/01/23 06:32:24;;;;;;;52.60;28.00;;;6.30;99.90;;;;;;6153231;23;20093;-88
2022/01/23 06:34:50;;;;;;;47.67;27.33;;;6.30;99.90;;;;;;6129057;23;20022;-88
2022/01/23 06:37:16;;;;;;;49.70;27.97;;;6.20;99.90;;;;;;6153666;23;20463;-88
2022/01/23 06:39:42;;;;;;;47.23;26.53;;;6.20;99.90;;;;;;6153226;23;20010;-88
2022/01/23 06:42:11;;;;;;;50.28;27.27;;;6.20;99.90;;;;;;6129605;23;20399;-88
2022/01/23 06:44:40;;;;;;;51.45;27.75;;;6.20;99.90;;;;;;6156430;23;20078;-88
2022/01/23 06:47:11;;;;;;;50.87;26.97;;;6.20;99.90;;;;;;6105296;23;20005;-88
2022/01/23 06:49:36;;;;;;;49.10;25.67;;;6.20;99.90;;;;;;6104193;23;20437;-88
2022/01/23 06:52:03;;;;;;;52.20;27.40;;;6.20;99.90;;;;;;6128297;23;20014;-88
2022/01/23 06:54:30;;;;;;;51.47;26.43;;;6.10;99.90;;;;;;6152648;23;20433;-88
2022/01/23 06:56:56;;;;;;;51.77;27.80;;;6.10;99.90;;;;;;6152804;23;20064;-88
2022/01/23 06:59:27;;;;;;;52.13;27.70;;;6.10;99.90;;;;;;6103384;23;20356;-88
2022/01/23 07:02:03;;;;;;;50.55;26.35;;;6.10;99.90;;;;;;6129028;23;20014;-88
2022/01/23 07:04:47;;;;;;;52.23;27.67;;;6.20;99.90;;;;;;6155443;23;20020;-88
2022/01/23 07:07:25;;;;;;;53.87;27.83;;;6.10;99.90;;;;;;6131655;23;20441;-88
2022/01/23 07:09:56;;;;;;;51.80;28.67;;;6.20;99.90;;;;;;6153141;23;20088;-88
2022/01/23 07:12:43;;;;;;;51.60;28.17;;;6.10;99.90;;;;;;6130671;23;20005;-88
2022/01/23 07:15:29;;;;;;;52.07;28.00;;;6.10;99.90;;;;;;6155714;23;20048;-88
2022/01/23 07:18:18;;;;;;;53.53;28.60;;;6.10;99.90;;;;;;6113292;23;20060;-88
2022/01/23 07:21:04;;;;;;;52.58;28.15;;;6.10;99.90;;;;;;6154734;23;20085;-88
2022/01/23 07:23:34;;;;;;;56.97;29.13;;;6.20;99.90;;;;;;6106256;23;20009;-88
2022/01/23 07:26:00;;;;;;;52.27;27.67;;;6.10;99.90;;;;;;6155523;23;20025;-88
2022/01/23 07:28:36;;;;;;;49.47;27.60;;;6.20;99.90;;;;;;6129313;23;20009;-88
2022/01/23 07:31:04;;;;;;;48.33;27.27;;;6.20;99.90;;;;;;6105424;23;20013;-88
2022/01/23 07:33:33;;;;;;;49.92;27.60;;;6.30;99.90;;;;;;6129866;23;20056;-89
2022/01/23 07:36:01;;;;;;;59.50;28.95;;;6.20;99.90;;;;;;6154888;23;20013;-88
2022/01/23 07:38:28;;;;;;;52.37;28.33;;;6.20;99.90;;;;;;6131037;23;20017;-88
2022/01/23 07:41:08;;;;;;;52.67;29.20;;;6.20;99.90;;;;;;6151256;23;20025;-88
2022/01/23 07:44:00;;;;;;;62.50;28.90;;;6.30;99.90;;;;;;6111083;23;20013;-88
2022/01/23 07:46:49;;;;;;;49.17;27.45;;;6.20;99.90;;;;;;6146574;23;20009;-88
2022/01/23 07:49:29;;;;;;;51.90;28.33;;;6.20;99.90;;;;;;6129201;23;20554;-88
2022/01/23 07:52:18;;;;;;;52.42;28.90;;;6.20;99.90;;;;;;6142890;23;20013;-88
2022/01/23 07:55:08;;;;;;;53.97;28.27;;;6.20;99.90;;;;;;6135177;23;20040;-88
2022/01/23 07:57:37;;;;;;;56.00;30.10;;;6.20;99.90;;;;;;6129389;23;20033;-88
2022/01/23 08:00:30;;;;;;;52.03;28.67;;;6.30;99.90;;;;;;6149762;23;20096;-87
2022/01/23 08:03:01;;;;;;;49.50;27.63;;;6.20;99.90;;;;;;6129612;23;20009;-88
2022/01/23 08:05:47;;;;;;;54.33;30.40;;;6.30;99.90;;;;;;6154756;23;20040;-88
2022/01/23 08:08:33;;;;;;;57.10;29.03;;;6.30;99.90;;;;;;6153106;23;20388;-88
2022/01/23 08:11:07;;;;;;;54.20;29.53;;;6.20;99.90;;;;;;6157110;23;20012;-90
2022/01/23 08:13:33;;;;;;;51.60;28.43;;;6.20;99.90;;;;;;6129560;23;20349;-88
2022/01/23 08:15:59;;;;;;;54.77;29.53;;;6.30;99.90;;;;;;6154447;23;20020;-88
2022/01/23 08:18:25;;;;;;;51.80;29.07;;;6.20;99.90;;;;;;6128966;23;20014;-88
2022/01/23 08:20:51;;;;;;;54.57;29.50;;;6.20;99.90;;;;;;6154019;23;20345;-88
2022/01/23 08:23:18;;;;;;;53.47;29.33;;;6.20;99.90;;;;;;6154035;23;20016;-88
2022/01/23 08:25:44;;;;;;;52.57;29.37;;;6.20;99.90;;;;;;6129605;23;20013;-87
2022/01/23 08:28:10;;;;;;;49.60;29.03;;;6.30;99.90;;;;;;6153234;23;20447;-88
2022/01/23 08:30:36;;;;;;;59.30;30.03;;;6.30;99.90;;;;;;6130475;23;20047;-88
2022/01/23 08:33:02;;;;;;;56.13;30.40;;;6.30;99.90;;;;;;6105181;23;20448;-88
2022/01/23 08:35:29;;;;;;;53.00;29.33;;;6.30;99.90;;;;;;6155485;23;20388;-88
2022/01/23 08:37:54;;;;;;;51.00;28.67;;;6.30;99.90;;;;;;6129375;23;20037;-88
2022/01/23 08:40:45;;;;;;;52.83;29.60;;;6.40;99.90;;;;;;6130045;23;20009;-88
2022/01/23 08:43:16;;;;;;;58.30;29.40;;;6.30;99.90;;;;;;6129726;23;20346;-88
2022/01/23 08:45:43;;;;;;;54.77;29.03;;;6.40;99.90;;;;;;6155370;23;20006;-88
2022/01/23 08:48:09;;;;;;;52.90;28.27;;;6.40;99.90;;;;;;6131861;23;20001;-88
2022/01/23 08:50:36;;;;;;;52.97;28.50;;;6.40;99.90;;;;;;6155688;23;20009;-88
2022/01/23 08:53:01;;;;;;;53.97;28.37;;;6.40;99.90;;;;;;6131804;23;20009;-88
2022/01/23 08:55:27;;;;;;;51.30;28.27;;;6.30;99.90;;;;;;6157652;23;20440;-88
2022/01/23 08:57:54;;;;;;;55.00;28.37;;;6.30;99.90;;;;;;6130914;23;20009;-88
2022/01/23 09:00:21;;;;;;;54.97;29.00;;;6.30;99.90;;;;;;6129996;23;20024;-88
2022/01/23 09:02:47;;;;;;;52.60;28.30;;;6.30;99.90;;;;;;6129406;23;20013;-88
2022/01/23 09:05:13;;;;;;;56.33;29.07;;;6.30;99.90;;;;;;6129448;23;20456;-88
2022/01/23 09:07:39;;;;;;;52.53;28.53;;;6.30;99.90;;;;;;6154760;23;20368;-88
2022/01/23 09:10:05;;;;;;;55.00;30.87;;;6.30;99.90;;;;;;6153399;23;20001;-88
2022/01/23 09:12:56;;;;;;;50.33;28.53;;;6.30;99.90;;;;;;6153747;23;20013;-88
2022/01/23 09:15:23;;;;;;;54.23;28.77;;;6.40;99.90;;;;;;6129421;23;20013;-88
2022/01/23 09:17:48;;;;;;;55.40;28.77;;;6.30;99.90;;;;;;6128643;23;20001;-88
2022/01/23 09:20:15;;;;;;;54.60;29.20;;;6.40;99.90;;;;;;6153245;23;20010;-88
2022/01/23 09:22:42;;;;;;;52.67;28.97;;;6.40;99.90;;;;;;6129325;23;20013;-88
2022/01/23 09:25:08;;;;;;;53.10;27.97;;;6.40;99.90;;;;;;6128714;23;20433;-88
2022/01/23 09:27:34;;;;;;;56.27;29.33;;;6.40;99.90;;;;;;6154996;23;20029;-88
2022/01/23 09:30:06;;;;;;;55.50;29.50;;;6.40;99.90;;;;;;6104442;23;20051;-88
2022/01/23 09:32:32;;;;;;;58.93;30.70;;;6.40;99.90;;;;;;6129312;23;20033;-88
2022/01/23 09:34:58;;;;;;;55.67;29.47;;;6.40;99.90;;;;;;6129225;23;20040;-88
2022/01/23 09:37:24;;;;;;;52.70;29.47;;;6.40;99.90;;;;;;6154087;23;20340;-88
2022/01/23 09:39:50;;;;;;;54.30;29.77;;;6.40;99.90;;;;;;6152978;23;20277;-89
2022/01/23 09:42:16;;;;;;;54.83;29.80;;;6.40;99.90;;;;;;6130311;23;20168;-88
2022/01/23 09:44:51;;;;;;;53.73;29.13;;;6.40;99.90;;;;;;6131033;23;20005;-88
2022/01/23 09:47:19;;;;;;;55.83;30.23;;;6.40;99.90;;;;;;6156790;23;20081;-88
2022/01/23 09:49:47;;;;;;;51.88;28.80;;;6.50;99.90;;;;;;6129406;23;20419;-88
2022/01/23 09:52:14;;;;;;;55.40;30.03;;;6.40;99.90;;;;;;6129359;23;20009;-88
2022/01/23 09:54:41;;;;;;;52.87;28.63;;;6.50;99.90;;;;;;6129353;23;20024;-88
2022/01/23 09:57:09;;;;;;;54.80;29.77;;;6.50;99.90;;;;;;6153527;23;20010;-88
2022/01/23 09:59:35;;;;;;;52.17;29.57;;;6.50;99.90;;;;;;6128814;23;20013;-88
2022/01/23 10:02:03;;;;;;;55.47;29.20;;;6.50;99.90;;;;;;6153792;23;20012;-88
2022/01/23 10:04:30;;;;;;;58.90;30.80;;;6.60;99.90;;;;;;6129134;23;20010;-88
2022/01/23 10:06:56;;;;;;;58.37;30.73;;;6.50;99.90;;;;;;6153792;23;20005;-88
2022/01/23 10:09:24;;;;;;;55.17;29.90;;;6.50;99.90;;;;;;6128615;23;20006;-88
2022/01/23 10:11:50;;;;;;;53.93;29.90;;;6.50;99.90;;;;;;6128823;23;20009;-88
2022/01/23 10:14:19;;;;;;;57.37;30.87;;;6.50;99.90;;;;;;6153758;23;20009;-88
2022/01/23 10:16:46;;;;;;;;;;;6.50;99.90;;;;;;6129250;23;20053;-88
2022/01/23 10:19:13;;;;;;;54.23;29.27;;;6.60;99.90;;;;;;6103594;23;19970;-88
2022/01/23 10:21:39;;;;;;;56.73;30.70;;;6.60;99.90;;;;;;6128418;23;20041;-88
2022/01/23 10:24:06;;;;;;;54.53;30.13;;;6.60;99.90;;;;;;6128728;23;20053;-88
2022/01/23 10:26:43;;;;;;;55.07;30.67;;;6.60;99.90;;;;;;6153191;23;20089;-88
2022/01/23 10:29:18;;;;;;;55.73;30.57;;;6.60;99.90;;;;;;6127877;23;20064;-88
2022/01/23 10:32:00;;;;;;;61.23;32.83;;;6.60;99.90;;;;;;6153138;23;20495;-88
2022/01/23 10:34:45;;;;;;;59.63;32.83;;;6.60;99.90;;;;;;6128796;23;20010;-88
2022/01/23 10:37:22;;;;;;;61.57;33.80;;;6.50;99.90;;;;;;6106045;23;20019;-88
2022/01/23 10:39:48;;;;;;;59.40;32.60;;;6.60;99.90;;;;;;6129696;23;20013;-88
2022/01/23 10:50:51;;;;;;;60.87;32.13;;;6.70;99.90;;;;;;6130435;23;20093;-88
2022/01/23 10:53:17;;;;;;;59.70;31.57;;;6.60;99.90;;;;;;6130408;23;20097;-88
2022/01/23 10:55:44;;;;;;;59.80;31.87;;;6.70;99.90;;;;;;6155173;23;20045;-88
2022/01/23 10:58:22;;;;;;;60.60;33.37;;;6.70;99.90;;;;;;6154166;23;20450;-88
2022/01/23 11:00:48;;;;;;;64.97;33.47;;;6.70;99.90;;;;;;6130077;23;20088;-88
2022/01/23 11:03:19;;;;;;;62.80;33.47;;;6.70;99.90;;;;;;6105986;23;20044;-88
2022/01/23 11:05:48;;;;;;;64.97;34.00;;;6.70;99.90;;;;;;6154877;23;20084;-88
2022/01/23 11:08:25;;;;;;;60.53;31.60;;;6.70;99.90;;;;;;6154121;23;20433;-88
2022/01/23 11:10:59;;;;;;;63.33;33.97;;;6.80;99.90;;;;;;6156000;23;20437;-88
2022/01/23 11:19:16;;;;;;;63.23;32.63;;;6.90;99.90;;;;;;6129353;23;20202;-88
2022/01/23 11:21:43;;;;;;;72.00;34.80;;;6.90;99.90;;;;;;6154825;23;20492;-88
2022/01/23 11:24:09;;;;;;;67.03;33.87;;;6.90;99.90;;;;;;6130258;23;20479;-88
2022/01/23 11:26:34;;;;;;;67.83;34.87;;;7.00;99.90;;;;;;6154503;23;20006;-88
2022/01/23 11:29:13;;;;;;;75.50;37.67;;;7.00;99.90;;;;;;6154577;23;20096;-87
2022/01/23 11:31:40;;;;;;;74.67;36.07;;;7.00;99.90;;;;;;6130074;23;20105;-87
2022/01/23 11:34:11;;;;;;;73.30;37.33;;;7.00;99.90;;;;;;6154633;23;20025;-87
2022/01/23 11:36:37;;;;;;;75.20;35.97;;;7.00;99.90;;;;;;6130099;23;20365;-88
2022/01/23 11:39:20;;;;;;;77.27;38.10;;;7.00;99.90;;;;;;6129600;23;20008;-87
2022/01/23 11:56:33;;;;;;;71.80;36.03;;;7.10;99.90;;;;;;6125207;23;20096;-87
2022/01/23 11:59:31;;;;;;;70.17;35.50;;;7.10;99.90;;;;;;6129412;23;20009;-87
2022/01/23 12:02:13;;;;;;;71.43;36.65;;;7.10;99.90;;;;;;6129845;23;20045;-87
2022/01/23 12:04:41;;;;;;;74.13;37.40;;;7.10;99.90;;;;;;6130240;23;20421;-87
2022/01/23 12:07:13;;;;;;;74.37;36.83;;;7.10;99.90;;;;;;6129852;23;20060;-87
2022/01/23 12:09:42;;;;;;;73.97;36.13;;;7.10;99.90;;;;;;6128900;23;20119;-87
2022/01/23 12:12:33;;;;;;;68.60;35.03;;;7.10;99.90;;;;;;6129940;23;20020;-87
2022/01/23 12:18:22;;;;;;;74.40;37.03;;;7.20;99.90;;;;;;6129553;23;20013;-87
2022/01/23 12:20:50;;;;;;;73.53;35.33;;;7.20;99.90;;;;;;6129488;23;20016;-87
2022/01/23 12:23:16;;;;;;;69.57;34.20;;;7.20;99.90;;;;;;6129665;23;20009;-87
2022/01/23 12:25:48;;;;;;;72.93;34.70;;;7.20;99.90;;;;;;6129457;23;20072;-87
2022/01/23 12:28:25;;;;;;;68.70;33.90;;;7.20;99.90;;;;;;6128705;23;20010;-87
2022/01/23 12:30:54;;;;;;;73.67;36.77;;;7.20;99.90;;;;;;6105064;23;20112;-87
2022/01/23 12:33:31;;;;;;;69.60;34.40;;;7.10;99.90;;;;;;6153953;23;20021;-87
2022/01/23 12:36:05;;;;;;;67.50;34.53;;;7.20;99.90;;;;;;6154062;23;20041;-87
2022/01/23 12:38:36;;;;;;;67.40;34.70;;;7.20;99.90;;;;;;6104331;23;20080;-87
2022/01/23 12:41:23;;;;;;;72.97;36.00;;;7.20;99.90;;;;;;6154277;23;20036;-87
2022/01/23 12:43:55;;;;;;;72.57;36.17;;;7.20;99.90;;;;;;6155446;23;20040;-87
2022/01/23 12:46:27;;;;;;;73.83;35.27;;;7.20;99.90;;;;;;6129643;23;20092;-87
2022/01/23 12:48:53;;;;;;;66.47;34.53;;;7.10;99.90;;;;;;6154714;23;20028;-87
2022/01/23 12:51:19;;;;;;;75.60;35.77;;;7.20;99.90;;;;;;6153896;23;20016;-87
2022/01/23 12:53:47;;;;;;;68.37;35.30;;;7.20;99.90;;;;;;6129977;23;20013;-88
2022/01/23 12:56:18;;;;;;;68.43;34.13;;;7.20;99.90;;;;;;6104614;23;20328;-87
2022/01/23 12:58:54;;;;;;;71.73;36.23;;;7.20;99.90;;;;;;6128635;23;20033;-87
2022/01/23 13:01:23;;;;;;;71.17;34.90;;;7.20;99.90;;;;;;6155026;23;20009;-87
2022/01/23 13:04:03;;;;;;;70.40;36.05;;;7.30;99.90;;;;;;6153984;23;20013;-87
2022/01/23 13:06:33;;;;;;;74.50;36.43;;;7.20;99.90;;;;;;6129216;23;20075;-87
2022/01/23 13:31:46;;;;;;;67.35;32.80;;;7.30;99.90;;;;;;6099078;23;20123;-87
2022/01/23 13:34:27;;;;;;;66.30;33.97;;;7.20;99.90;;;;;;6128955;23;20001;-87
2022/01/23 13:36:57;;;;;;;65.27;31.60;;;7.20;99.90;;;;;;6128737;23;20063;-87
2022/01/23 13:39:30;;;;;;;66.97;32.60;;;7.20;99.90;;;;;;6128226;23;20075;-87
2022/01/23 13:53:34;;;;;;;61.63;31.17;;;7.30;99.90;;;;;;6153242;23;20056;-87
2022/01/23 13:58:53;;;;;;;59.47;31.13;;;7.20;99.90;;;;;;6154475;23;20009;-87
2022/01/23 14:01:35;;;;;;;58.63;31.40;;;7.20;99.90;;;;;;6153401;23;20061;-88
2022/01/23 14:04:02;;;;;;;61.67;32.07;;;7.30;99.90;;;;;;6128807;23;20018;-87
2022/01/23 14:06:28;;;;;;;59.07;30.10;;;7.30;99.90;;;;;;6128547;23;20383;-87
2022/01/23 14:09:09;;;;;;;57.50;29.47;;;7.30;99.90;;;;;;6127840;23;20005;-87
2022/01/23 14:11:38;;;;;;;56.00;28.57;;;7.30;99.90;;;;;;6128486;23;20002;-87
2022/01/23 14:14:15;;;;;;;56.00;29.00;;;7.30;99.90;;;;;;6153690;23;19993;-87
2022/01/23 14:16:43;;;;;;;54.70;27.07;;;7.30;99.90;;;;;;6129654;23;20012;-87
2022/01/23 14:19:20;;;;;;;56.73;28.90;;;7.30;99.90;;;;;;6129133;23;20008;-87
2022/01/23 14:21:59;;;;;;;53.93;28.20;;;7.30;99.90;;;;;;6130554;23;20064;-88
2022/01/23 14:24:27;;;;;;;49.70;26.50;;;7.30;99.90;;;;;;6130029;23;20032;-87
2022/01/23 14:27:08;;;;;;;55.70;27.17;;;7.30;99.90;;;;;;6130053;23;20012;-87
2022/01/23 14:29:46;;;;;;;50.60;26.63;;;7.30;99.90;;;;;;6128994;23;20020;-88
2022/01/23 14:32:20;;;;;;;57.20;27.80;;;7.30;99.90;;;;;;6154578;23;20421;-87
2022/01/23 14:34:46;;;;;;;55.97;27.67;;;7.30;99.90;;;;;;6129100;23;20365;-87
2022/01/23 14:37:12;;;;;;;58.73;28.10;;;7.20;99.90;;;;;;6129472;23;20037;-87
2022/01/23 14:39:38;;;;;;;49.97;25.73;;;7.20;99.90;;;;;;6128830;23;20013;-87
2022/01/23 14:42:18;;;;;;;53.30;26.77;;;7.20;99.90;;;;;;6129622;23;20014;-87
2022/01/23 14:44:45;;;;;;;53.03;26.53;;;7.20;99.90;;;;;;6129530;23;20010;-87
2022/01/23 14:47:12;;;;;;;50.33;25.90;;;7.30;99.90;;;;;;6129551;23;20015;-88
2022/01/23 14:49:42;;;;;;;54.27;27.33;;;7.20;99.90;;;;;;6127888;23;20005;-87
2022/01/23 14:52:13;;;;;;;46.93;25.07;;;7.30;99.90;;;;;;6128891;23;20361;-87
2022/01/23 14:54:40;;;;;;;56.27;27.53;;;7.30;99.90;;;;;;6154441;23;20005;-87
2022/01/23 14:57:11;;;;;;;53.00;27.57;;;7.20;99.90;;;;;;6131898;23;20105;-87
2022/01/23 14:59:37;;;;;;;54.03;27.53;;;7.20;99.90;;;;;;6129813;23;20088;-87
2022/01/23 15:02:06;;;;;;;55.07;27.77;;;7.20;99.90;;;;;;6155166;23;20002;-87
2022/01/23 15:05:02;;;;;;;52.85;28.05;;;7.30;99.90;;;;;;6130492;23;20117;-87
2022/01/23 15:07:37;;;;;;;56.80;27.40;;;7.20;99.90;;;;;;6150801;23;20104;-88
2022/01/23 15:10:05;;;;;;;53.07;27.47;;;7.20;99.90;;;;;;6129735;23;20037;-87
2022/01/23 15:12:31;;;;;;;48.40;24.70;;;7.20;99.90;;;;;;6129620;23;20029;-87
2022/01/23 15:14:57;;;;;;;46.77;25.33;;;7.30;99.90;;;;;;6129638;23;20016;-88
2022/01/23 15:17:24;;;;;;;51.83;26.20;;;7.30;99.90;;;;;;6154541;23;20085;-88
2022/01/23 15:19:51;;;;;;;49.87;25.20;;;7.30;99.90;;;;;;6130967;23;20009;-88
2022/01/23 15:22:17;;;;;;;46.40;24.33;;;7.20;99.90;;;;;;6129831;23;20041;-88
2022/01/23 15:24:42;;;;;;;47.57;25.23;;;7.30;99.90;;;;;;6156877;23;20010;-89
2022/01/23 15:27:08;;;;;;;48.73;26.20;;;7.30;99.90;;;;;;6107111;23;20010;-88
2022/01/23 15:29:34;;;;;;;44.77;24.80;;;7.30;99.90;;;;;;6114124;23;20010;-89
2022/01/23 15:32:00;;;;;;;46.03;24.70;;;7.30;99.90;;;;;;6102580;23;20065;-89
2022/01/23 15:34:30;;;;;;;47.47;24.03;;;7.20;99.90;;;;;;6078963;23;20089;-89
2022/01/23 15:36:56;;;;;;;46.83;24.87;;;7.20;99.90;;;;;;6126613;23;20018;-89
2022/01/23 15:39:25;;;;;;;48.90;25.63;;;7.20;99.90;;;;;;6077539;23;20037;-89
2022/01/23 15:41:51;;;;;;;50.83;24.80;;;7.30;99.90;;;;;;6100662;23;20046;-89
2022/01/23 15:44:17;;;;;;;55.17;29.13;;;7.20;99.90;;;;;;6076675;23;20065;-89
2022/01/23 15:46:43;;;;;;;47.20;25.33;;;7.20;99.90;;;;;;6076646;23;20532;-89
2022/01/23 15:49:10;;;;;;;49.80;25.23;;;7.20;99.90;;;;;;6076304;23;20016;-89
2022/01/23 15:51:37;;;;;;;45.67;23.50;;;7.10;99.90;;;;;;6076633;23;20010;-89
2022/01/23 15:54:04;;;;;;;44.30;24.07;;;7.10;99.90;;;;;;6100625;23;20001;-89
2022/01/23 15:56:30;;;;;;;48.67;24.47;;;7.20;99.90;;;;;;6076715;23;20464;-89
2022/01/23 15:58:56;;;;;;;48.07;25.10;;;7.20;99.90;;;;;;6076423;23;20002;-89
2022/01/23 16:01:22;;;;;;;46.93;23.93;;;7.20;99.90;;;;;;6100586;23;20006;-89
2022/01/23 16:03:48;;;;;;;57.07;27.43;;;7.20;99.90;;;;;;6076399;23;20064;-89
2022/01/23 16:06:13;;;;;;;49.13;24.90;;;7.20;99.90;;;;;;6076504;23;20441;-88
2022/01/23 16:08:39;;;;;;;48.37;25.03;;;7.10;99.90;;;;;;6076394;23;20106;-89
2022/01/23 16:11:07;;;;;;;49.13;24.70;;;7.10;99.90;;;;;;6100326;23;20096;-89
2022/01/23 16:13:33;;;;;;;45.47;24.00;;;7.10;99.90;;;;;;6100433;23;20013;-89
2022/01/23 16:15:59;;;;;;;49.53;24.80;;;7.10;99.90;;;;;;6100471;23;20020;-89
2022/01/23 16:18:26;;;;;;;44.90;23.23;;;7.10;99.90;;;;;;6076231;23;20288;-89
2022/01/23 16:20:52;;;;;;;49.27;24.00;;;7.10;99.90;;;;;;6124716;23;20013;-89
2022/01/23 16:23:19;;;;;;;46.37;23.70;;;7.10;99.90;;;;;;6099993;23;20006;-90
2022/01/23 16:25:45;;;;;;;53.63;25.40;;;7.10;99.90;;;;;;6100434;23;20006;-89
2022/01/23 16:28:10;;;;;;;50.17;26.20;;;7.10;99.90;;;;;;6076072;23;20584;-89
2022/01/23 16:30:52;;;;;;;48.17;25.83;;;7.10;99.90;;;;;;6153679;23;20013;-89